sensor_id;sensor_type;location;lat;lon;timestamp;P1;durP1;ratioP1;P2;durP2;ratioP2
22193;SDS011;11262;50.308;9.270;2022-11-20T00:02:24;46.03;;;21.57;;
22193;SDS011;11262;50.308;9.270;2022-11-20T00:04:49;47.10;;;21.27;;
22193;SDS011;11262;50.308;9.270;2022-11-20T00:07:15;45.07;;;19.27;;
22193;SDS011;11262;50.308;9.270;2022-11-20T00:09:40;44.80;;;21.27;;
22193;SDS011;11262;50.308;9.270;2022-11-20T00:12:06;43.37;;;20.27;;
22193;SDS011;11262;50.308;9.270;2022-11-20T00:14:32;43.53;;;20.60;;
22193;SDS011;11262;50.308;9.270;2022-11-20T00:16:57;45.37;;;20.33;;
22193;SDS011;11262;50.308;9.270;2022-11-20T00:19:23;40.93;;;19.33;;
22193;SDS011;11262;50.308;9.270;2022-11-20T00:21:49;45.57;;;20.60;;
22193;SDS011;11262;50.308;9.270;2022-11-20T00:24:16;44.13;;;20.50;;
22193;SDS011;11262;50.308;9.270;2022-11-20T00:26:42;43.83;;;20.03;;
22193;SDS011;11262;50.308;9.270;2022-11-20T00:29:08;45.87;;;20.90;;
22193;SDS011;11262;50.308;9.270;2022-11-20T00:31:34;43.53;;;20.67;;
22193;SDS011;11262;50.308;9.270;2022-11-20T00:34:00;41.47;;;18.77;;
22193;SDS011;11262;50.308;9.270;2022-11-20T00:36:27;41.33;;;18.97;;
22193;SDS011;11262;50.308;9.270;2022-11-20T00:38:54;42.10;;;19.23;;
22193;SDS011;11262;50.308;9.270;2022-11-20T00:41:21;43.27;;;19.03;;
22193;SDS011;11262;50.308;9.270;2022-11-20T00:43:48;42.37;;;18.67;;
22193;SDS011;11262;50.308;9.270;2022-11-20T00:46:15;42.43;;;19.70;;
22193;SDS011;11262;50.308;9.270;2022-11-20T00:48:42;39.67;;;18.53;;
22193;SDS011;11262;50.308;9.270;2022-11-20T00:51:09;40.60;;;18.73;;
22193;SDS011;11262;50.308;9.270;2022-11-20T00:53:37;37.97;;;18.80;;
22193;SDS011;11262;50.308;9.270;2022-11-20T00:56:03;36.73;;;17.70;;
22193;SDS011;11262;50.308;9.270;2022-11-20T00:58:32;39.80;;;18.53;;
22193;SDS011;11262;50.308;9.270;2022-11-20T01:03:32;42.47;;;19.30;;
22193;SDS011;11262;50.308;9.270;2022-11-20T01:06:06;38.97;;;18.07;;
22193;SDS011;11262;50.308;9.270;2022-11-20T01:08:35;43.40;;;19.93;;
22193;SDS011;11262;50.308;9.270;2022-11-20T01:11:02;40.60;;;18.70;;
22193;SDS011;11262;50.308;9.270;2022-11-20T01:13:29;42.67;;;19.23;;
22193;SDS011;11262;50.308;9.270;2022-11-20T01:18:42;46.13;;;20.70;;
22193;SDS011;11262;50.308;9.270;2022-11-20T01:21:13;44.33;;;20.87;;
22193;SDS011;11262;50.308;9.270;2022-11-20T01:23:41;45.20;;;20.83;;
22193;SDS011;11262;50.308;9.270;2022-11-20T01:26:12;45.07;;;20.23;;
22193;SDS011;11262;50.308;9.270;2022-11-20T01:28:41;51.17;;;20.07;;
22193;SDS011;11262;50.308;9.270;2022-11-20T01:31:15;45.17;;;20.37;;
22193;SDS011;11262;50.308;9.270;2022-11-20T01:33:42;44.77;;;19.63;;
22193;SDS011;11262;50.308;9.270;2022-11-20T01:36:09;45.27;;;19.60;;
22193;SDS011;11262;50.308;9.270;2022-11-20T01:38:35;41.83;;;19.67;;
22193;SDS011;11262;50.308;9.270;2022-11-20T01:41:01;42.40;;;19.73;;
22193;SDS011;11262;50.308;9.270;2022-11-20T01:43:27;44.67;;;19.63;;
22193;SDS011;11262;50.308;9.270;2022-11-20T01:45:58;45.83;;;21.20;;
22193;SDS011;11262;50.308;9.270;2022-11-20T01:48:35;45.40;;;19.37;;
22193;SDS011;11262;50.308;9.270;2022-11-20T01:51:07;44.10;;;19.77;;
22193;SDS011;11262;50.308;9.270;2022-11-20T01:53:41;45.30;;;19.77;;
22193;SDS011;11262;50.308;9.270;2022-11-20T01:56:09;47.07;;;19.27;;
22193;SDS011;11262;50.308;9.270;2022-11-20T01:58:37;46.30;;;19.73;;
22193;SDS011;11262;50.308;9.270;2022-11-20T02:01:08;45.90;;;19.67;;
22193;SDS011;11262;50.308;9.270;2022-11-20T02:03:34;45.50;;;20.60;;
22193;SDS011;11262;50.308;9.270;2022-11-20T02:06:04;42.13;;;18.77;;
22193;SDS011;11262;50.308;9.270;2022-11-20T02:08:44;45.00;;;20.13;;
22193;SDS011;11262;50.308;9.270;2022-11-20T02:11:10;48.40;;;20.40;;
22193;SDS011;11262;50.308;9.270;2022-11-20T02:13:37;44.23;;;19.40;;
22193;SDS011;11262;50.308;9.270;2022-11-20T02:18:54;49.77;;;21.10;;
22193;SDS011;11262;50.308;9.270;2022-11-20T02:24:03;44.80;;;20.17;;
22193;SDS011;11262;50.308;9.270;2022-11-20T02:26:33;47.40;;;21.20;;
22193;SDS011;11262;50.308;9.270;2022-11-20T02:29:09;41.53;;;18.93;;
22193;SDS011;11262;50.308;9.270;2022-11-20T02:31:38;41.70;;;19.67;;
22193;SDS011;11262;50.308;9.270;2022-11-20T02:34:07;43.37;;;20.33;;
22193;SDS011;11262;50.308;9.270;2022-11-20T02:36:33;47.07;;;20.20;;
22193;SDS011;11262;50.308;9.270;2022-11-20T02:39:01;43.37;;;19.27;;
22193;SDS011;11262;50.308;9.270;2022-11-20T02:41:31;45.23;;;20.40;;
22193;SDS011;11262;50.308;9.270;2022-11-20T02:44:01;44.43;;;20.13;;
22193;SDS011;11262;50.308;9.270;2022-11-20T02:46:28;46.07;;;21.27;;
22193;SDS011;11262;50.308;9.270;2022-11-20T02:48:54;46.90;;;19.87;;
22193;SDS011;11262;50.308;9.270;2022-11-20T02:51:20;44.20;;;20.27;;
22193;SDS011;11262;50.308;9.270;2022-11-20T02:53:45;45.07;;;20.43;;
22193;SDS011;11262;50.308;9.270;2022-11-20T02:56:11;47.03;;;20.70;;
22193;SDS011;11262;50.308;9.270;2022-11-20T02:58:37;47.30;;;19.47;;
22193;SDS011;11262;50.308;9.270;2022-11-20T03:01:02;46.43;;;19.67;;
22193;SDS011;11262;50.308;9.270;2022-11-20T03:03:28;42.97;;;20.60;;
22193;SDS011;11262;50.308;9.270;2022-11-20T03:05:53;48.43;;;21.03;;
22193;SDS011;11262;50.308;9.270;2022-11-20T03:08:19;45.27;;;19.67;;
22193;SDS011;11262;50.308;9.270;2022-11-20T03:10:45;45.97;;;20.93;;
22193;SDS011;11262;50.308;9.270;2022-11-20T03:13:10;45.20;;;20.23;;
22193;SDS011;11262;50.308;9.270;2022-11-20T03:15:36;42.33;;;19.17;;
22193;SDS011;11262;50.308;9.270;2022-11-20T03:18:02;43.47;;;20.17;;
22193;SDS011;11262;50.308;9.270;2022-11-20T03:20:28;43.50;;;20.00;;
22193;SDS011;11262;50.308;9.270;2022-11-20T03:22:54;42.73;;;19.10;;
22193;SDS011;11262;50.308;9.270;2022-11-20T03:25:20;44.13;;;21.00;;
22193;SDS011;11262;50.308;9.270;2022-11-20T03:27:46;44.40;;;19.40;;
22193;SDS011;11262;50.308;9.270;2022-11-20T03:30:12;45.90;;;20.30;;
22193;SDS011;11262;50.308;9.270;2022-11-20T03:32:38;46.67;;;20.87;;
22193;SDS011;11262;50.308;9.270;2022-11-20T03:35:04;46.10;;;21.13;;
22193;SDS011;11262;50.308;9.270;2022-11-20T03:37:31;41.57;;;20.03;;
22193;SDS011;11262;50.308;9.270;2022-11-20T03:39:57;47.60;;;21.13;;
22193;SDS011;11262;50.308;9.270;2022-11-20T03:42:22;44.87;;;20.57;;
22193;SDS011;11262;50.308;9.270;2022-11-20T03:45:07;44.67;;;20.30;;
22193;SDS011;11262;50.308;9.270;2022-11-20T03:47:33;46.97;;;20.47;;
22193;SDS011;11262;50.308;9.270;2022-11-20T03:49:58;45.60;;;19.90;;
22193;SDS011;11262;50.308;9.270;2022-11-20T03:52:24;45.60;;;20.30;;
22193;SDS011;11262;50.308;9.270;2022-11-20T03:54:49;50.37;;;20.67;;
22193;SDS011;11262;50.308;9.270;2022-11-20T03:57:15;46.20;;;21.30;;
22193;SDS011;11262;50.308;9.270;2022-11-20T03:59:40;45.07;;;20.87;;
22193;SDS011;11262;50.308;9.270;2022-11-20T04:02:06;42.23;;;20.33;;
22193;SDS011;11262;50.308;9.270;2022-11-20T04:04:31;43.73;;;19.90;;
22193;SDS011;11262;50.308;9.270;2022-11-20T04:06:57;46.00;;;19.87;;
22193;SDS011;11262;50.308;9.270;2022-11-20T04:09:23;49.40;;;20.87;;
22193;SDS011;11262;50.308;9.270;2022-11-20T04:11:48;48.23;;;20.87;;
22193;SDS011;11262;50.308;9.270;2022-11-20T04:14:14;47.63;;;21.13;;
22193;SDS011;11262;50.308;9.270;2022-11-20T04:16:41;49.43;;;20.67;;
22193;SDS011;11262;50.308;9.270;2022-11-20T04:19:11;43.17;;;19.60;;
22193;SDS011;11262;50.308;9.270;2022-11-20T04:21:38;45.27;;;20.17;;
22193;SDS011;11262;50.308;9.270;2022-11-20T04:24:04;47.13;;;21.30;;
22193;SDS011;11262;50.308;9.270;2022-11-20T04:26:30;49.13;;;20.97;;
22193;SDS011;11262;50.308;9.270;2022-11-20T04:28:57;43.80;;;19.77;;
22193;SDS011;11262;50.308;9.270;2022-11-20T04:31:24;44.50;;;19.43;;
22193;SDS011;11262;50.308;9.270;2022-11-20T04:33:52;47.30;;;20.87;;
22193;SDS011;11262;50.308;9.270;2022-11-20T04:36:18;42.97;;;19.73;;
22193;SDS011;11262;50.308;9.270;2022-11-20T04:38:45;41.83;;;18.97;;
22193;SDS011;11262;50.308;9.270;2022-11-20T04:41:17;44.23;;;19.90;;
22193;SDS011;11262;50.308;9.270;2022-11-20T04:43:51;45.07;;;19.77;;
22193;SDS011;11262;50.308;9.270;2022-11-20T04:46:19;42.43;;;19.87;;
22193;SDS011;11262;50.308;9.270;2022-11-20T04:48:45;48.07;;;21.77;;
22193;SDS011;11262;50.308;9.270;2022-11-20T04:51:12;45.70;;;21.03;;
22193;SDS011;11262;50.308;9.270;2022-11-20T04:53:38;44.70;;;20.00;;
22193;SDS011;11262;50.308;9.270;2022-11-20T04:56:04;44.37;;;20.47;;
22193;SDS011;11262;50.308;9.270;2022-11-20T04:58:32;50.57;;;20.57;;
22193;SDS011;11262;50.308;9.270;2022-11-20T05:01:31;48.63;;;20.67;;
22193;SDS011;11262;50.308;9.270;2022-11-20T05:03:50;46.10;;;20.50;;
22193;SDS011;11262;50.308;9.270;2022-11-20T05:06:18;46.30;;;20.50;;
22193;SDS011;11262;50.308;9.270;2022-11-20T05:08:45;47.37;;;20.60;;
22193;SDS011;11262;50.308;9.270;2022-11-20T05:11:14;44.13;;;19.30;;
22193;SDS011;11262;50.308;9.270;2022-11-20T05:13:41;41.77;;;18.67;;
22193;SDS011;11262;50.308;9.270;2022-11-20T05:16:09;47.20;;;21.23;;
22193;SDS011;11262;50.308;9.270;2022-11-20T05:18:36;49.53;;;21.57;;
22193;SDS011;11262;50.308;9.270;2022-11-20T05:21:02;46.30;;;20.10;;
22193;SDS011;11262;50.308;9.270;2022-11-20T05:23:29;51.33;;;22.27;;
22193;SDS011;11262;50.308;9.270;2022-11-20T05:25:56;46.60;;;21.10;;
22193;SDS011;11262;50.308;9.270;2022-11-20T05:28:23;47.37;;;20.20;;
22193;SDS011;11262;50.308;9.270;2022-11-20T05:30:49;49.30;;;21.27;;
22193;SDS011;11262;50.308;9.270;2022-11-20T05:33:15;48.10;;;20.73;;
22193;SDS011;11262;50.308;9.270;2022-11-20T05:35:41;43.83;;;20.27;;
22193;SDS011;11262;50.308;9.270;2022-11-20T05:38:06;44.17;;;20.10;;
22193;SDS011;11262;50.308;9.270;2022-11-20T05:40:32;44.77;;;19.97;;
22193;SDS011;11262;50.308;9.270;2022-11-20T05:42:58;46.93;;;21.43;;
22193;SDS011;11262;50.308;9.270;2022-11-20T05:45:24;44.93;;;20.90;;
22193;SDS011;11262;50.308;9.270;2022-11-20T05:47:50;47.33;;;20.10;;
22193;SDS011;11262;50.308;9.270;2022-11-20T05:50:15;49.30;;;21.37;;
22193;SDS011;11262;50.308;9.270;2022-11-20T05:52:41;48.23;;;23.10;;
22193;SDS011;11262;50.308;9.270;2022-11-20T05:55:07;56.70;;;24.80;;
22193;SDS011;11262;50.308;9.270;2022-11-20T05:57:33;51.33;;;22.73;;
22193;SDS011;11262;50.308;9.270;2022-11-20T05:59:59;49.43;;;21.70;;
22193;SDS011;11262;50.308;9.270;2022-11-20T06:02:24;50.40;;;21.37;;
22193;SDS011;11262;50.308;9.270;2022-11-20T06:04:50;43.97;;;20.07;;
22193;SDS011;11262;50.308;9.270;2022-11-20T06:07:15;46.93;;;19.30;;
22193;SDS011;11262;50.308;9.270;2022-11-20T06:09:41;46.07;;;19.83;;
22193;SDS011;11262;50.308;9.270;2022-11-20T06:12:07;41.97;;;19.67;;
22193;SDS011;11262;50.308;9.270;2022-11-20T06:14:32;46.63;;;19.87;;
22193;SDS011;11262;50.308;9.270;2022-11-20T06:16:58;48.73;;;22.10;;
22193;SDS011;11262;50.308;9.270;2022-11-20T06:19:24;45.70;;;22.47;;
22193;SDS011;11262;50.308;9.270;2022-11-20T06:21:49;47.70;;;21.17;;
22193;SDS011;11262;50.308;9.270;2022-11-20T06:24:15;46.57;;;21.13;;
22193;SDS011;11262;50.308;9.270;2022-11-20T06:26:41;49.03;;;22.33;;
22193;SDS011;11262;50.308;9.270;2022-11-20T06:29:07;51.60;;;22.70;;
22193;SDS011;11262;50.308;9.270;2022-11-20T06:31:33;48.27;;;21.07;;
22193;SDS011;11262;50.308;9.270;2022-11-20T06:34:00;52.50;;;22.77;;
22193;SDS011;11262;50.308;9.270;2022-11-20T06:36:26;58.67;;;23.87;;
22193;SDS011;11262;50.308;9.270;2022-11-20T06:38:51;54.80;;;22.00;;
22193;SDS011;11262;50.308;9.270;2022-11-20T06:41:19;51.47;;;23.27;;
22193;SDS011;11262;50.308;9.270;2022-11-20T06:43:45;54.50;;;24.03;;
22193;SDS011;11262;50.308;9.270;2022-11-20T06:46:12;56.50;;;25.03;;
22193;SDS011;11262;50.308;9.270;2022-11-20T06:48:38;57.17;;;21.83;;
22193;SDS011;11262;50.308;9.270;2022-11-20T06:51:05;58.10;;;22.40;;
22193;SDS011;11262;50.308;9.270;2022-11-20T06:53:32;57.20;;;24.03;;
22193;SDS011;11262;50.308;9.270;2022-11-20T06:55:58;57.73;;;25.07;;
22193;SDS011;11262;50.308;9.270;2022-11-20T06:58:25;62.50;;;23.27;;
22193;SDS011;11262;50.308;9.270;2022-11-20T07:00:52;63.43;;;22.73;;
22193;SDS011;11262;50.308;9.270;2022-11-20T07:03:17;65.87;;;25.07;;
22193;SDS011;11262;50.308;9.270;2022-11-20T07:05:43;55.93;;;22.73;;
22193;SDS011;11262;50.308;9.270;2022-11-20T07:08:10;60.30;;;22.67;;
22193;SDS011;11262;50.308;9.270;2022-11-20T07:10:36;55.63;;;22.50;;
22193;SDS011;11262;50.308;9.270;2022-11-20T07:13:02;58.83;;;21.40;;
22193;SDS011;11262;50.308;9.270;2022-11-20T07:15:27;67.47;;;22.87;;
22193;SDS011;11262;50.308;9.270;2022-11-20T07:17:53;58.47;;;22.23;;
22193;SDS011;11262;50.308;9.270;2022-11-20T07:22:54;50.40;;;20.73;;
22193;SDS011;11262;50.308;9.270;2022-11-20T07:25:21;49.03;;;21.10;;
22193;SDS011;11262;50.308;9.270;2022-11-20T07:27:47;49.90;;;21.37;;
22193;SDS011;11262;50.308;9.270;2022-11-20T07:30:14;132.60;;;22.03;;
22193;SDS011;11262;50.308;9.270;2022-11-20T07:32:45;85.07;;;22.87;;
22193;SDS011;11262;50.308;9.270;2022-11-20T07:35:12;52.33;;;22.40;;
22193;SDS011;11262;50.308;9.270;2022-11-20T07:37:38;68.73;;;22.87;;
22193;SDS011;11262;50.308;9.270;2022-11-20T07:40:03;61.97;;;20.33;;
22193;SDS011;11262;50.308;9.270;2022-11-20T07:42:29;64.10;;;21.17;;
22193;SDS011;11262;50.308;9.270;2022-11-20T07:44:55;69.57;;;22.20;;
22193;SDS011;11262;50.308;9.270;2022-11-20T07:47:20;60.27;;;21.00;;
22193;SDS011;11262;50.308;9.270;2022-11-20T07:49:46;52.67;;;22.00;;
22193;SDS011;11262;50.308;9.270;2022-11-20T07:52:11;53.90;;;19.80;;
22193;SDS011;11262;50.308;9.270;2022-11-20T07:54:37;178.67;;;25.53;;
22193;SDS011;11262;50.308;9.270;2022-11-20T07:57:02;134.93;;;24.23;;
22193;SDS011;11262;50.308;9.270;2022-11-20T07:59:28;193.57;;;25.93;;
22193;SDS011;11262;50.308;9.270;2022-11-20T08:01:54;264.37;;;29.23;;
22193;SDS011;11262;50.308;9.270;2022-11-20T08:04:20;160.67;;;25.43;;
22193;SDS011;11262;50.308;9.270;2022-11-20T08:06:46;321.17;;;30.47;;
22193;SDS011;11262;50.308;9.270;2022-11-20T08:09:12;366.37;;;30.90;;
22193;SDS011;11262;50.308;9.270;2022-11-20T08:11:37;368.93;;;30.43;;
22193;SDS011;11262;50.308;9.270;2022-11-20T08:14:21;388.50;;;28.70;;
22193;SDS011;11262;50.308;9.270;2022-11-20T08:16:48;387.40;;;29.50;;
22193;SDS011;11262;50.308;9.270;2022-11-20T08:19:15;293.60;;;26.23;;
22193;SDS011;11262;50.308;9.270;2022-11-20T08:21:42;382.20;;;29.67;;
22193;SDS011;11262;50.308;9.270;2022-11-20T08:24:08;146.77;;;23.33;;
22193;SDS011;11262;50.308;9.270;2022-11-20T08:26:34;140.67;;;24.63;;
22193;SDS011;11262;50.308;9.270;2022-11-20T08:29:00;159.17;;;26.57;;
22193;SDS011;11262;50.308;9.270;2022-11-20T08:31:26;65.10;;;23.07;;
22193;SDS011;11262;50.308;9.270;2022-11-20T08:33:53;81.37;;;26.37;;
22193;SDS011;11262;50.308;9.270;2022-11-20T08:36:19;68.63;;;24.70;;
22193;SDS011;11262;50.308;9.270;2022-11-20T08:38:49;52.23;;;20.13;;
22193;SDS011;11262;50.308;9.270;2022-11-20T08:41:16;50.33;;;19.03;;
22193;SDS011;11262;50.308;9.270;2022-11-20T08:46:38;46.90;;;19.03;;
22193;SDS011;11262;50.308;9.270;2022-11-20T08:49:12;48.73;;;21.47;;
22193;SDS011;11262;50.308;9.270;2022-11-20T08:51:38;40.47;;;15.43;;
22193;SDS011;11262;50.308;9.270;2022-11-20T08:54:04;34.43;;;12.07;;
22193;SDS011;11262;50.308;9.270;2022-11-20T08:56:30;39.63;;;14.83;;
22193;SDS011;11262;50.308;9.270;2022-11-20T08:58:56;35.57;;;13.93;;
22193;SDS011;11262;50.308;9.270;2022-11-20T09:01:24;45.00;;;15.47;;
22193;SDS011;11262;50.308;9.270;2022-11-20T09:03:50;44.87;;;13.43;;
22193;SDS011;11262;50.308;9.270;2022-11-20T09:06:16;53.17;;;13.37;;
22193;SDS011;11262;50.308;9.270;2022-11-20T09:08:42;75.33;;;20.30;;
22193;SDS011;11262;50.308;9.270;2022-11-20T09:11:08;49.87;;;12.90;;
22193;SDS011;11262;50.308;9.270;2022-11-20T09:13:34;63.43;;;17.10;;
22193;SDS011;11262;50.308;9.270;2022-11-20T09:16:04;64.93;;;17.20;;
22193;SDS011;11262;50.308;9.270;2022-11-20T09:18:32;54.83;;;15.10;;
22193;SDS011;11262;50.308;9.270;2022-11-20T09:21:00;51.60;;;14.40;;
22193;SDS011;11262;50.308;9.270;2022-11-20T09:23:27;54.33;;;13.73;;
22193;SDS011;11262;50.308;9.270;2022-11-20T09:25:56;58.80;;;12.57;;
22193;SDS011;11262;50.308;9.270;2022-11-20T09:28:24;54.73;;;13.70;;
22193;SDS011;11262;50.308;9.270;2022-11-20T09:30:50;53.33;;;13.40;;
22193;SDS011;11262;50.308;9.270;2022-11-20T09:33:16;54.90;;;14.03;;
22193;SDS011;11262;50.308;9.270;2022-11-20T09:35:42;44.43;;;13.33;;
22193;SDS011;11262;50.308;9.270;2022-11-20T09:38:09;66.77;;;14.03;;
22193;SDS011;11262;50.308;9.270;2022-11-20T09:40:36;63.53;;;13.77;;
22193;SDS011;11262;50.308;9.270;2022-11-20T09:43:09;53.03;;;13.70;;
22193;SDS011;11262;50.308;9.270;2022-11-20T09:45:56;41.40;;;11.83;;
22193;SDS011;11262;50.308;9.270;2022-11-20T09:54:09;86.33;;;15.50;;
22193;SDS011;11262;50.308;9.270;2022-11-20T09:56:39;58.23;;;13.87;;
22193;SDS011;11262;50.308;9.270;2022-11-20T09:59:08;123.17;;;15.07;;
22193;SDS011;11262;50.308;9.270;2022-11-20T10:01:48;228.50;;;18.73;;
22193;SDS011;11262;50.308;9.270;2022-11-20T10:04:18;218.60;;;19.23;;
22193;SDS011;11262;50.308;9.270;2022-11-20T10:06:54;190.70;;;20.53;;
22193;SDS011;11262;50.308;9.270;2022-11-20T10:09:40;166.57;;;18.67;;
22193;SDS011;11262;50.308;9.270;2022-11-20T10:23:40;485.37;;;27.37;;
22193;SDS011;11262;50.308;9.270;2022-11-20T10:29:18;346.10;;;23.87;;
22193;SDS011;11262;50.308;9.270;2022-11-20T10:31:50;206.13;;;23.13;;
22193;SDS011;11262;50.308;9.270;2022-11-20T10:37:05;233.30;;;22.37;;
22193;SDS011;11262;50.308;9.270;2022-11-20T10:39:41;233.23;;;20.00;;
22193;SDS011;11262;50.308;9.270;2022-11-20T10:42:17;206.83;;;21.00;;
22193;SDS011;11262;50.308;9.270;2022-11-20T10:44:58;54.67;;;15.00;;
22193;SDS011;11262;50.308;9.270;2022-11-20T10:47:36;64.23;;;17.03;;
22193;SDS011;11262;50.308;9.270;2022-11-20T10:50:03;76.77;;;17.87;;
22193;SDS011;11262;50.308;9.270;2022-11-20T10:52:38;68.70;;;16.93;;
22193;SDS011;11262;50.308;9.270;2022-11-20T10:55:25;64.83;;;16.37;;
22193;SDS011;11262;50.308;9.270;2022-11-20T11:00:40;41.73;;;12.13;;
22193;SDS011;11262;50.308;9.270;2022-11-20T11:03:25;46.13;;;11.93;;
22193;SDS011;11262;50.308;9.270;2022-11-20T11:06:00;33.57;;;11.00;;
22193;SDS011;11262;50.308;9.270;2022-11-20T11:08:47;45.40;;;12.43;;
22193;SDS011;11262;50.308;9.270;2022-11-20T11:11:23;42.13;;;13.10;;
22193;SDS011;11262;50.308;9.270;2022-11-20T11:13:52;52.47;;;14.43;;
22193;SDS011;11262;50.308;9.270;2022-11-20T11:16:22;54.60;;;14.73;;
22193;SDS011;11262;50.308;9.270;2022-11-20T11:18:51;74.73;;;16.37;;
22193;SDS011;11262;50.308;9.270;2022-11-20T11:21:28;64.70;;;15.50;;
22193;SDS011;11262;50.308;9.270;2022-11-20T11:24:00;71.10;;;16.47;;
22193;SDS011;11262;50.308;9.270;2022-11-20T11:26:27;76.10;;;16.97;;
22193;SDS011;11262;50.308;9.270;2022-11-20T11:28:57;68.33;;;16.27;;
22193;SDS011;11262;50.308;9.270;2022-11-20T11:31:29;125.87;;;17.80;;
22193;SDS011;11262;50.308;9.270;2022-11-20T11:34:13;54.10;;;16.20;;
22193;SDS011;11262;50.308;9.270;2022-11-20T11:36:40;43.07;;;15.87;;
22193;SDS011;11262;50.308;9.270;2022-11-20T11:39:11;45.40;;;15.93;;
22193;SDS011;11262;50.308;9.270;2022-11-20T11:41:39;57.63;;;16.73;;
22193;SDS011;11262;50.308;9.270;2022-11-20T11:44:15;92.90;;;17.70;;
22193;SDS011;11262;50.308;9.270;2022-11-20T11:47:26;142.43;;;18.63;;
22193;SDS011;11262;50.308;9.270;2022-11-20T11:52:49;49.37;;;16.27;;
22193;SDS011;11262;50.308;9.270;2022-11-20T11:56:17;66.87;;;16.40;;
22193;SDS011;11262;50.308;9.270;2022-11-20T12:03:42;45.73;;;17.13;;
22193;SDS011;11262;50.308;9.270;2022-11-20T12:06:17;40.00;;;15.93;;
22193;SDS011;11262;50.308;9.270;2022-11-20T12:08:44;41.03;;;16.13;;
22193;SDS011;11262;50.308;9.270;2022-11-20T12:14:04;38.20;;;14.43;;
22193;SDS011;11262;50.308;9.270;2022-11-20T12:16:51;33.13;;;15.60;;
22193;SDS011;11262;50.308;9.270;2022-11-20T12:19:19;40.67;;;17.50;;
22193;SDS011;11262;50.308;9.270;2022-11-20T12:21:51;38.67;;;16.77;;
22193;SDS011;11262;50.308;9.270;2022-11-20T12:24:42;38.97;;;17.33;;
22193;SDS011;11262;50.308;9.270;2022-11-20T12:30:10;42.57;;;17.57;;
22193;SDS011;11262;50.308;9.270;2022-11-20T12:40:47;36.97;;;16.27;;
22193;SDS011;11262;50.308;9.270;2022-11-20T12:43:37;39.23;;;17.43;;
22193;SDS011;11262;50.308;9.270;2022-11-20T12:46:43;40.70;;;15.70;;
22193;SDS011;11262;50.308;9.270;2022-11-20T13:00:15;44.93;;;18.63;;
22193;SDS011;11262;50.308;9.270;2022-11-20T13:07:57;136.57;;;51.10;;
22193;SDS011;11262;50.308;9.270;2022-11-20T13:10:49;240.93;;;76.97;;
22193;SDS011;11262;50.308;9.270;2022-11-20T13:16:32;398.47;;;117.50;;
22193;SDS011;11262;50.308;9.270;2022-11-20T13:19:03;249.33;;;74.60;;
22193;SDS011;11262;50.308;9.270;2022-11-20T13:24:07;70.97;;;31.70;;
22193;SDS011;11262;50.308;9.270;2022-11-20T13:27:02;47.70;;;21.00;;
22193;SDS011;11262;50.308;9.270;2022-11-20T13:29:31;38.57;;;16.43;;
22193;SDS011;11262;50.308;9.270;2022-11-20T13:32:12;43.07;;;19.63;;
22193;SDS011;11262;50.308;9.270;2022-11-20T13:34:53;42.67;;;20.70;;
22193;SDS011;11262;50.308;9.270;2022-11-20T13:37:38;35.10;;;16.23;;
22193;SDS011;11262;50.308;9.270;2022-11-20T13:40:05;40.37;;;17.70;;
22193;SDS011;11262;50.308;9.270;2022-11-20T13:42:44;45.63;;;20.03;;
22193;SDS011;11262;50.308;9.270;2022-11-20T13:47:50;37.20;;;17.60;;
22193;SDS011;11262;50.308;9.270;2022-11-20T13:50:17;40.77;;;18.77;;
22193;SDS011;11262;50.308;9.270;2022-11-20T13:55:35;41.27;;;18.17;;
22193;SDS011;11262;50.308;9.270;2022-11-20T13:58:26;55.27;;;21.93;;
22193;SDS011;11262;50.308;9.270;2022-11-20T14:01:34;47.17;;;20.13;;
22193;SDS011;11262;50.308;9.270;2022-11-20T14:03:59;43.57;;;18.70;;
22193;SDS011;11262;50.308;9.270;2022-11-20T14:06:33;50.00;;;17.87;;
22193;SDS011;11262;50.308;9.270;2022-11-20T14:09:13;52.80;;;21.40;;
22193;SDS011;11262;50.308;9.270;2022-11-20T14:11:50;44.03;;;18.10;;
22193;SDS011;11262;50.308;9.270;2022-11-20T14:14:17;44.90;;;19.63;;
22193;SDS011;11262;50.308;9.270;2022-11-20T14:16:45;50.10;;;20.67;;
22193;SDS011;11262;50.308;9.270;2022-11-20T14:21:52;49.23;;;20.20;;
22193;SDS011;11262;50.308;9.270;2022-11-20T14:24:20;46.80;;;18.23;;
22193;SDS011;11262;50.308;9.270;2022-11-20T14:26:47;41.30;;;17.70;;
22193;SDS011;11262;50.308;9.270;2022-11-20T14:29:17;40.23;;;16.90;;
22193;SDS011;11262;50.308;9.270;2022-11-20T14:31:50;41.07;;;17.13;;
22193;SDS011;11262;50.308;9.270;2022-11-20T14:34:20;47.67;;;18.40;;
22193;SDS011;11262;50.308;9.270;2022-11-20T14:36:52;50.00;;;20.00;;
22193;SDS011;11262;50.308;9.270;2022-11-20T14:39:33;46.30;;;18.43;;
22193;SDS011;11262;50.308;9.270;2022-11-20T14:42:00;44.67;;;17.50;;
22193;SDS011;11262;50.308;9.270;2022-11-20T14:44:31;43.80;;;15.67;;
22193;SDS011;11262;50.308;9.270;2022-11-20T14:46:59;41.27;;;16.53;;
22193;SDS011;11262;50.308;9.270;2022-11-20T14:49:26;45.00;;;17.57;;
22193;SDS011;11262;50.308;9.270;2022-11-20T14:52:02;44.80;;;17.30;;
22193;SDS011;11262;50.308;9.270;2022-11-20T14:54:47;37.83;;;15.00;;
22193;SDS011;11262;50.308;9.270;2022-11-20T14:57:27;38.80;;;14.83;;
22193;SDS011;11262;50.308;9.270;2022-11-20T15:00:04;37.50;;;14.27;;
22193;SDS011;11262;50.308;9.270;2022-11-20T15:02:42;37.80;;;15.50;;
22193;SDS011;11262;50.308;9.270;2022-11-20T15:05:09;45.40;;;19.37;;
22193;SDS011;11262;50.308;9.270;2022-11-20T15:07:36;39.30;;;16.43;;
22193;SDS011;11262;50.308;9.270;2022-11-20T15:12:31;40.67;;;15.40;;
22193;SDS011;11262;50.308;9.270;2022-11-20T15:15:00;40.80;;;14.80;;
22193;SDS011;11262;50.308;9.270;2022-11-20T15:17:27;35.57;;;14.30;;
22193;SDS011;11262;50.308;9.270;2022-11-20T15:19:53;40.00;;;14.80;;
22193;SDS011;11262;50.308;9.270;2022-11-20T15:22:19;51.27;;;14.33;;
22193;SDS011;11262;50.308;9.270;2022-11-20T15:24:45;54.77;;;14.33;;
22193;SDS011;11262;50.308;9.270;2022-11-20T15:27:10;119.63;;;18.03;;
22193;SDS011;11262;50.308;9.270;2022-11-20T15:29:37;97.23;;;18.00;;
22193;SDS011;11262;50.308;9.270;2022-11-20T15:32:02;65.93;;;15.87;;
22193;SDS011;11262;50.308;9.270;2022-11-20T15:34:28;71.30;;;17.67;;
22193;SDS011;11262;50.308;9.270;2022-11-20T15:36:54;170.20;;;19.40;;
22193;SDS011;11262;50.308;9.270;2022-11-20T15:39:20;141.53;;;17.97;;
22193;SDS011;11262;50.308;9.270;2022-11-20T15:41:45;193.40;;;21.40;;
22193;SDS011;11262;50.308;9.270;2022-11-20T15:44:11;318.10;;;26.87;;
22193;SDS011;11262;50.308;9.270;2022-11-20T15:46:39;358.87;;;26.03;;
22193;SDS011;11262;50.308;9.270;2022-11-20T15:49:14;370.50;;;27.80;;
22193;SDS011;11262;50.308;9.270;2022-11-20T15:51:44;449.07;;;31.40;;
22193;SDS011;11262;50.308;9.270;2022-11-20T15:54:19;482.33;;;35.67;;
22193;SDS011;11262;50.308;9.270;2022-11-20T15:56:49;544.60;;;35.93;;
22193;SDS011;11262;50.308;9.270;2022-11-20T15:59:18;573.10;;;39.03;;
22193;SDS011;11262;50.308;9.270;2022-11-20T16:01:44;586.93;;;42.00;;
22193;SDS011;11262;50.308;9.270;2022-11-20T16:04:14;509.03;;;35.27;;
22193;SDS011;11262;50.308;9.270;2022-11-20T16:06:41;449.13;;;36.27;;
22193;SDS011;11262;50.308;9.270;2022-11-20T16:09:07;604.50;;;36.20;;